Time;durP1;ratioP1;P1;durP2;ratioP2;P2;SDS_P1;SDS_P2;PMS_P1;PMS_P2;Temp;Humidity;BMP_temperature;BMP_pressure;BME280_temperature;BME280_humidity;BME280_pressure;Samples;Min_cycle;Max_cycle;Signal;HPM_P1;HPM_P2
2023/02/13 00:01:57;;;;;;;14.05;10.30;;;7.60;99.90;;;;;;4958101;28;20052;-89
2023/02/13 00:04:24;;;;;;;12.50;10.43;;;7.60;99.90;;;;;;4956563;28;20290;-90
2023/02/13 00:06:51;;;;;;;14.48;12.00;;;7.60;99.90;;;;;;4958417;28;20059;-90
2023/02/13 00:09:18;;;;;;;13.30;10.75;;;7.60;99.90;;;;;;4973474;28;20397;-90
2023/02/13 00:11:45;;;;;;;15.48;12.40;;;7.60;99.90;;;;;;4959676;28;20156;-89
2023/02/13 00:14:12;;;;;;;15.23;12.10;;;7.50;99.90;;;;;;4977272;28;20514;-89
2023/02/13 00:16:39;;;;;;;13.80;11.32;;;7.50;99.90;;;;;;4898515;29;20194;-88
2023/02/13 00:19:06;;;;;;;13.90;10.68;;;7.50;99.90;;;;;;4924703;28;20059;-88
2023/02/13 00:21:32;;;;;;;13.48;11.05;;;7.50;99.90;;;;;;4941268;29;20579;-89
2023/02/13 00:23:59;;;;;;;12.48;10.43;;;7.50;99.90;;;;;;4958193;28;20090;-90
2023/02/13 00:26:26;;;;;;;13.23;11.02;;;7.50;99.90;;;;;;4940866;29;20149;-90
2023/02/13 00:28:53;;;;;;;13.05;10.50;;;7.50;99.90;;;;;;4939400;29;20077;-89
2023/02/13 00:31:20;;;;;;;12.35;9.90;;;7.40;99.90;;;;;;4957641;28;20054;-88
2023/02/13 00:33:47;;;;;;;11.25;9.10;;;7.40;99.90;;;;;;4967384;28;20078;-90
2023/02/13 00:36:17;;;;;;;11.57;9.20;;;7.40;99.90;;;;;;4953701;28;20493;-90
2023/02/13 00:38:44;;;;;;;9.90;8.73;;;7.40;99.90;;;;;;4955090;28;20059;-91
2023/02/13 00:41:11;;;;;;;9.55;8.07;;;7.40;99.90;;;;;;4940776;28;20059;-88
2023/02/13 00:43:38;;;;;;;9.43;8.02;;;7.40;99.90;;;;;;4919049;29;20447;-90
2023/02/13 00:46:05;;;;;;;10.25;8.57;;;7.40;99.90;;;;;;4942142;29;20126;-90
2023/02/13 00:48:32;;;;;;;9.10;7.90;;;7.40;99.90;;;;;;4957894;28;20062;-90
2023/02/13 00:50:59;;;;;;;9.98;7.47;;;7.40;99.90;;;;;;4953631;28;20520;-91
2023/02/13 00:53:26;;;;;;;9.93;7.72;;;7.40;99.90;;;;;;4965260;28;20114;-90
2023/02/13 00:55:53;;;;;;;8.52;7.00;;;7.40;99.90;;;;;;4956767;28;20142;-90
2023/02/13 00:58:20;;;;;;;8.40;6.82;;;7.40;99.90;;;;;;4943508;28;20051;-90
2023/02/13 01:00:47;;;;;;;8.13;6.30;;;7.40;99.90;;;;;;4958872;28;20078;-90
2023/02/13 01:03:15;;;;;;;9.20;7.47;;;7.40;99.90;;;;;;4958408;28;20227;-90
2023/02/13 01:05:42;;;;;;;8.40;6.75;;;7.40;99.90;;;;;;4969705;28;20535;-89
2023/02/13 01:08:10;;;;;;;9.52;6.97;;;7.40;99.90;;;;;;4953454;28;20477;-90
2023/02/13 01:10:37;;;;;;;8.65;7.38;;;7.40;99.90;;;;;;4968575;28;20059;-90
2023/02/13 01:13:04;;;;;;;8.70;7.10;;;7.40;99.90;;;;;;4959682;28;20047;-90
2023/02/13 01:15:31;;;;;;;8.77;7.05;;;7.40;99.90;;;;;;4962335;28;20054;-86
2023/02/13 01:17:59;;;;;;;8.02;6.25;;;7.40;99.90;;;;;;4961093;28;20668;-90
2023/02/13 01:20:27;;;;;;;7.82;6.05;;;7.40;99.90;;;;;;4959115;28;20055;-89
2023/02/13 01:22:53;;;;;;;7.53;6.32;;;7.40;99.90;;;;;;4946502;29;20059;-90
2023/02/13 01:25:20;;;;;;;7.72;6.20;;;7.40;99.90;;;;;;4946625;29;20542;-90
2023/02/13 01:27:47;;;;;;;8.32;6.82;;;7.40;99.90;;;;;;4976549;28;20180;-90
2023/02/13 01:30:15;;;;;;;7.93;6.13;;;7.40;99.90;;;;;;4961393;28;20059;-90
2023/02/13 01:32:42;;;;;;;7.57;5.97;;;7.40;99.90;;;;;;4961398;28;20087;-88
2023/02/13 01:35:10;;;;;;;7.28;6.05;;;7.40;99.90;;;;;;4947492;28;20529;-91
2023/02/13 01:37:38;;;;;;;7.03;5.13;;;7.30;99.90;;;;;;4965318;28;20059;-90
2023/02/13 01:40:06;;;;;;;6.43;5.28;;;7.40;99.90;;;;;;4977377;28;20051;-92
2023/02/13 01:42:33;;;;;;;5.85;4.53;;;7.40;99.90;;;;;;4962116;28;20488;-90
2023/02/13 01:45:03;;;;;;;5.57;4.57;;;7.40;99.90;;;;;;4924542;29;20055;-92
2023/02/13 01:47:40;;;;;;;6.75;4.97;;;7.40;99.90;;;;;;4958926;28;20055;-91
2023/02/13 01:50:07;;;;;;;5.88;4.80;;;7.40;99.90;;;;;;4959965;28;20094;-90
2023/02/13 01:52:34;;;;;;;5.40;4.18;;;7.40;99.90;;;;;;4978965;28;20047;-91
2023/02/13 01:55:01;;;;;;;7.28;5.80;;;7.40;99.90;;;;;;4966776;28;20086;-89
2023/02/13 01:57:28;;;;;;;6.68;5.43;;;7.40;99.90;;;;;;4960518;28;20090;-90
2023/02/13 02:00:08;;;;;;;8.23;5.88;;;7.30;99.90;;;;;;4940843;29;20056;-90
2023/02/13 02:02:36;;;;;;;5.90;4.50;;;7.30;99.90;;;;;;4960467;28;20059;-92
2023/02/13 02:05:03;;;;;;;6.70;4.78;;;7.30;99.90;;;;;;4961277;28;20107;-91
2023/02/13 02:07:30;;;;;;;6.05;4.70;;;7.30;99.90;;;;;;4958407;28;20075;-90
2023/02/13 02:10:03;;;;;;;7.05;5.03;;;7.40;99.90;;;;;;4960090;28;20161;-90
2023/02/13 02:12:43;;;;;;;5.28;4.20;;;7.40;99.90;;;;;;4961717;28;20134;-90
2023/02/13 02:15:10;;;;;;;6.75;4.25;;;7.40;99.90;;;;;;4951045;28;20054;-90
2023/02/13 02:17:37;;;;;;;6.07;4.65;;;7.40;99.90;;;;;;4978632;28;20150;-91
2023/02/13 02:20:07;;;;;;;5.32;3.95;;;7.40;99.90;;;;;;4914006;29;20109;-91
2023/02/13 02:22:45;;;;;;;5.60;4.55;;;7.40;99.90;;;;;;4975298;28;20079;-91
2023/02/13 02:25:31;;;;;;;5.10;3.70;;;7.40;99.90;;;;;;4977074;28;20054;-90
2023/02/13 02:28:16;;;;;;;5.82;3.70;;;7.40;99.90;;;;;;4942970;29;20175;-92
2023/02/13 02:31:17;;;;;;;4.95;3.88;;;7.30;99.90;;;;;;4945979;29;20051;-90
2023/02/13 02:33:58;;;;;;;5.88;4.70;;;7.30;99.90;;;;;;4985379;28;20069;-91
2023/02/13 02:36:57;;;;;;;4.50;3.33;;;7.30;99.90;;;;;;4950108;28;20162;-91
2023/02/13 02:39:42;;;;;;;5.60;4.50;;;7.20;99.90;;;;;;4945411;28;20104;-91
2023/02/13 02:42:31;;;;;;;5.68;4.15;;;7.10;99.90;;;;;;4945225;28;20052;-92
2023/02/13 02:45:15;;;;;;;4.40;3.42;;;7.10;99.90;;;;;;4947598;29;20078;-90
2023/02/13 02:51:03;;;;;;;4.97;4.10;;;7.00;99.90;;;;;;4959617;28;20511;-91
2023/02/13 02:53:34;;;;;;;5.45;4.43;;;6.90;99.90;;;;;;4971352;28;20051;-90
2023/02/13 02:56:03;;;;;;;5.00;3.63;;;6.90;99.90;;;;;;4946367;29;20062;-90
2023/02/13 03:07:19;;;;;;;5.60;4.47;;;6.50;99.90;;;;;;4966591;28;20058;-91
2023/02/13 03:15:33;;;;;;;6.53;4.97;;;6.10;99.90;;;;;;4950610;29;20047;-90
2023/02/13 03:23:37;;;;;;;5.63;4.35;;;5.90;99.90;;;;;;4958309;28;20055;-91
2023/02/13 03:26:19;;;;;;;6.05;4.55;;;5.80;99.90;;;;;;4949120;28;20107;-91
2023/02/13 03:31:52;;;;;;;6.68;4.85;;;5.60;99.90;;;;;;4962644;28;20439;-90
2023/02/13 03:34:21;;;;;;;6.95;5.18;;;5.50;99.90;;;;;;4964046;28;20054;-92
2023/02/13 03:40:17;;;;;;;7.65;5.57;;;5.40;99.90;;;;;;4962602;28;20051;-90
2023/02/13 03:42:57;;;;;;;6.85;4.55;;;5.30;99.90;;;;;;4955875;28;20062;-89
2023/02/13 03:51:02;;;;;;;5.05;3.53;;;5.10;99.90;;;;;;4966074;28;20122;-89
2023/02/13 03:53:30;;;;;;;5.65;4.00;;;5.10;99.90;;;;;;4965461;28;20106;-89
2023/02/13 04:01:30;;;;;;;5.53;3.88;;;5.00;99.90;;;;;;4966995;28;20511;-92
2023/02/13 04:04:07;;;;;;;5.35;4.18;;;5.10;99.90;;;;;;4946261;28;20050;-90
2023/02/13 04:06:42;;;;;;;5.93;4.38;;;5.10;99.90;;;;;;4964345;28;20105;-90
2023/02/13 04:09:08;;;;;;;5.32;3.80;;;5.10;99.90;;;;;;4964666;28;20047;-90
2023/02/13 04:11:46;;;;;;;5.50;3.95;;;5.10;99.90;;;;;;4950060;29;20065;-90
2023/02/13 04:14:43;;;;;;;5.65;3.97;;;5.00;99.90;;;;;;4965044;28;20127;-90
2023/02/13 04:17:17;;;;;;;5.97;4.13;;;4.90;99.90;;;;;;4958149;28;20174;-90
2023/02/13 04:19:44;;;;;;;5.20;3.75;;;4.90;99.90;;;;;;4956759;28;20044;-90
2023/02/13 04:22:11;;;;;;;6.65;4.70;;;4.80;99.90;;;;;;4956751;29;20384;-90
2023/02/13 04:24:37;;;;;;;6.28;4.78;;;4.80;99.90;;;;;;4955748;28;20479;-91
2023/02/13 04:27:04;;;;;;;6.13;4.60;;;4.80;99.90;;;;;;4941091;28;20555;-92
2023/02/13 04:29:31;;;;;;;6.07;4.40;;;4.70;99.90;;;;;;4937990;29;20043;-90
2023/02/13 04:31:58;;;;;;;7.32;4.65;;;4.70;99.90;;;;;;4951219;28;20058;-92
2023/02/13 04:34:25;;;;;;;6.80;4.57;;;4.70;99.90;;;;;;4978737;28;20074;-91
2023/02/13 04:36:51;;;;;;;6.35;4.47;;;4.70;99.90;;;;;;4947484;29;20055;-91
2023/02/13 04:39:18;;;;;;;6.72;4.28;;;4.60;99.90;;;;;;4932850;29;20058;-92
2023/02/13 04:41:45;;;;;;;5.75;4.32;;;4.60;99.90;;;;;;4933094;29;20126;-92
2023/02/13 04:44:12;;;;;;;6.07;4.72;;;4.50;99.90;;;;;;4978317;28;20083;-89
2023/02/13 04:46:39;;;;;;;6.57;4.75;;;4.40;99.90;;;;;;4984340;28;20059;-90
2023/02/13 04:49:06;;;;;;;7.07;4.47;;;4.40;99.90;;;;;;4940724;29;20079;-91
2023/02/13 04:51:33;;;;;;;6.50;4.25;;;4.30;99.90;;;;;;4964795;28;20105;-90
2023/02/13 04:54:02;;;;;;;6.75;4.68;;;4.20;99.90;;;;;;4961360;28;20138;-91
2023/02/13 04:56:30;;;;;;;6.10;4.32;;;4.10;99.90;;;;;;4949981;29;20475;-91
2023/02/13 04:58:56;;;;;;;6.90;4.93;;;4.10;99.90;;;;;;4983540;28;20296;-91
2023/02/13 05:01:23;;;;;;;6.00;4.30;;;4.10;99.90;;;;;;4951094;28;20061;-91
2023/02/13 05:03:50;;;;;;;5.95;4.45;;;4.10;99.90;;;;;;4935852;29;20495;-90
2023/02/13 05:06:18;;;;;;;5.38;4.47;;;4.10;99.90;;;;;;4952474;29;20238;-91
2023/02/13 05:08:44;;;;;;;6.57;5.03;;;4.10;99.90;;;;;;4948905;28;20826;-92
2023/02/13 05:11:11;;;;;;;6.93;5.07;;;4.00;99.90;;;;;;4957744;28;20135;-90
2023/02/13 05:13:38;;;;;;;6.75;4.82;;;4.00;99.90;;;;;;4977673;28;20051;-92
2023/02/13 05:16:06;;;;;;;6.50;4.85;;;4.00;99.90;;;;;;4953805;28;20043;-94
2023/02/13 05:18:33;;;;;;;7.53;5.00;;;3.90;99.90;;;;;;4969257;28;20078;-90
2023/02/13 05:23:48;;;;;;;6.65;4.60;;;3.80;99.90;;;;;;4977618;28;20082;-90
2023/02/13 05:26:15;;;;;;;6.57;4.57;;;3.80;99.90;;;;;;4951536;29;20067;-92
2023/02/13 05:31:27;;;;;;;6.15;4.80;;;3.80;99.90;;;;;;4979683;28;20202;-91
2023/02/13 05:33:54;;;;;;;7.70;5.45;;;3.70;99.90;;;;;;4987822;28;20376;-94
2023/02/13 05:36:21;;;;;;;6.40;4.55;;;3.70;99.90;;;;;;4964403;28;20138;-90
2023/02/13 05:38:49;;;;;;;7.13;4.90;;;3.70;99.90;;;;;;4979081;28;20394;-91
2023/02/13 05:41:15;;;;;;;8.15;5.72;;;3.60;99.90;;;;;;4984655;28;20057;-90
2023/02/13 05:43:43;;;;;;;7.18;5.18;;;3.60;99.90;;;;;;4933824;28;20051;-92
2023/02/13 05:46:10;;;;;;;7.40;4.88;;;3.50;99.90;;;;;;4947171;28;20142;-91
2023/02/13 05:48:37;;;;;;;6.07;4.40;;;3.50;99.90;;;;;;4965366;28;20259;-90
2023/02/13 05:51:04;;;;;;;6.88;4.72;;;3.50;99.90;;;;;;4961161;28;20223;-91
2023/02/13 05:53:34;;;;;;;7.25;5.07;;;3.50;99.90;;;;;;4945180;29;20126;-92
2023/02/13 05:56:01;;;;;;;7.97;5.50;;;3.50;99.90;;;;;;4940416;29;20114;-77
2023/02/13 05:58:28;;;;;;;6.60;4.60;;;3.50;99.90;;;;;;4963950;28;20075;-79
2023/02/13 06:00:57;;;;;;;6.25;4.88;;;3.40;99.90;;;;;;4940867;29;20055;-79
2023/02/13 06:03:25;;;;;;;7.18;5.13;;;3.40;99.90;;;;;;4954231;28;20065;-79
2023/02/13 06:05:52;;;;;;;8.15;5.43;;;3.40;99.90;;;;;;4953326;28;20122;-79
2023/02/13 06:08:20;;;;;;;8.80;5.82;;;3.40;99.90;;;;;;4952637;28;20612;-79
2023/02/13 06:10:47;;;;;;;8.55;6.32;;;3.40;99.90;;;;;;4952585;28;20137;-79
2023/02/13 06:13:14;;;;;;;7.18;4.97;;;3.40;99.90;;;;;;4963063;28;20079;-77
2023/02/13 06:15:40;;;;;;;9.48;6.45;;;3.40;99.90;;;;;;4971523;28;20051;-78
2023/02/13 06:18:07;;;;;;;8.90;6.53;;;3.40;99.90;;;;;;4954658;28;20137;-77
2023/02/13 06:20:34;;;;;;;7.90;5.72;;;3.30;99.90;;;;;;4938514;28;20172;-78
2023/02/13 06:23:01;;;;;;;8.40;5.40;;;3.20;99.90;;;;;;4948674;28;20564;-77
2023/02/13 06:25:28;;;;;;;9.25;5.82;;;3.10;99.90;;;;;;4935878;28;20055;-78
2023/02/13 06:27:55;;;;;;;8.82;6.03;;;3.20;99.90;;;;;;4964555;28;20047;-78
2023/02/13 06:30:21;;;;;;;8.73;6.35;;;3.20;99.90;;;;;;4949819;28;20082;-79
2023/02/13 06:32:48;;;;;;;7.18;5.20;;;3.20;99.90;;;;;;4920874;29;20079;-81
2023/02/13 06:35:15;;;;;;;7.80;5.07;;;3.20;99.90;;;;;;4939202;28;20376;-82
2023/02/13 06:37:42;;;;;;;8.85;5.70;;;3.10;99.90;;;;;;4935008;29;20173;-81
2023/02/13 06:40:10;;;;;;;8.00;5.63;;;3.00;99.90;;;;;;4936353;29;20102;-84
2023/02/13 06:42:36;;;;;;;7.55;5.10;;;3.00;99.90;;;;;;4966856;28;20604;-81
2023/02/13 06:45:03;;;;;;;7.65;5.20;;;3.00;99.90;;;;;;4931816;29;20058;-81
2023/02/13 06:47:30;;;;;;;7.05;5.00;;;3.00;99.90;;;;;;4963563;28;20051;-81
2023/02/13 06:49:57;;;;;;;8.85;6.03;;;3.00;99.90;;;;;;4933637;29;20490;-82
2023/02/13 06:52:24;;;;;;;7.03;5.15;;;3.00;99.90;;;;;;4952430;28;20039;-83
2023/02/13 06:54:50;;;;;;;7.47;5.63;;;2.90;99.90;;;;;;4935785;28;20133;-83
2023/02/13 06:57:17;;;;;;;6.80;5.22;;;3.00;99.90;;;;;;4968428;28;20141;-82
2023/02/13 06:59:44;;;;;;;9.35;6.00;;;2.90;99.90;;;;;;4963738;28;20594;-83
2023/02/13 07:02:11;;;;;;;7.93;5.55;;;2.90;99.90;;;;;;4963477;28;20445;-85
2023/02/13 07:04:38;;;;;;;7.28;5.18;;;2.90;99.90;;;;;;4971184;28;20201;-83
2023/02/13 07:07:05;;;;;;;8.30;5.65;;;2.90;99.90;;;;;;4948635;29;20043;-86
2023/02/13 07:09:32;;;;;;;8.85;6.30;;;2.90;99.90;;;;;;4937609;29;20486;-83
2023/02/13 07:12:02;;;;;;;9.02;6.28;;;2.90;99.90;;;;;;4955332;28;20102;-83
2023/02/13 07:14:29;;;;;;;9.35;6.03;;;2.90;99.90;;;;;;4968685;28;20216;-85
2023/02/13 07:16:56;;;;;;;8.93;6.32;;;2.90;99.90;;;;;;4957086;28;20098;-85
2023/02/13 07:19:23;;;;;;;7.80;5.45;;;2.80;99.90;;;;;;4957433;28;20055;-85
2023/02/13 07:21:50;;;;;;;8.60;6.90;;;2.80;99.90;;;;;;4957585;28;20051;-84
2023/02/13 07:24:16;;;;;;;8.75;6.13;;;2.70;99.90;;;;;;4972896;28;20117;-84
2023/02/13 07:26:43;;;;;;;7.38;4.85;;;2.60;99.90;;;;;;4925741;29;20395;-84
2023/02/13 07:29:10;;;;;;;8.75;6.10;;;2.60;99.90;;;;;;4956291;28;20047;-84
2023/02/13 07:31:38;;;;;;;9.27;6.18;;;2.70;99.90;;;;;;4957250;28;20055;-84
2023/02/13 07:34:05;;;;;;;8.18;5.80;;;2.70;99.90;;;;;;4957747;28;20059;-83
2023/02/13 07:36:32;;;;;;;6.72;5.38;;;2.60;99.90;;;;;;4958768;28;20379;-84
2023/02/13 07:38:59;;;;;;;8.43;5.90;;;2.50;99.90;;;;;;4940369;28;20090;-85
2023/02/13 07:41:26;;;;;;;7.68;5.10;;;2.50;99.90;;;;;;4940769;29;20138;-85
2023/02/13 07:43:53;;;;;;;7.25;4.75;;;2.50;99.90;;;;;;4956003;28;20055;-85
2023/02/13 07:46:20;;;;;;;8.75;5.93;;;2.40;99.90;;;;;;4905713;29;20079;-83
2023/02/13 07:48:47;;;;;;;9.13;5.88;;;2.50;99.90;;;;;;4957254;28;20063;-85
2023/02/13 07:51:13;;;;;;;8.98;6.45;;;2.50;99.90;;;;;;4941697;29;20051;-84
2023/02/13 07:53:40;;;;;;;7.88;5.22;;;2.50;99.90;;;;;;4939723;29;20137;-85
2023/02/13 07:56:07;;;;;;;7.15;5.35;;;2.50;99.90;;;;;;4956779;28;20137;-85
2023/02/13 07:58:35;;;;;;;8.20;6.05;;;2.60;99.90;;;;;;4938427;28;20471;-84
2023/02/13 08:01:07;;;;;;;8.50;6.13;;;2.60;99.90;;;;;;4955852;28;20354;-83
2023/02/13 08:03:33;;;;;;;6.97;5.22;;;2.70;99.90;;;;;;4956674;28;20377;-84
2023/02/13 08:06:00;;;;;;;6.60;4.78;;;2.70;99.90;;;;;;4972442;28;20150;-84
2023/02/13 08:08:27;;;;;;;7.95;5.50;;;2.70;99.90;;;;;;4940124;28;20514;-83
2023/02/13 08:13:40;;;;;;;8.10;5.57;;;2.70;99.90;;;;;;4959706;28;20149;-83
2023/02/13 08:16:07;;;;;;;8.65;5.28;;;2.80;99.90;;;;;;4972203;28;20057;-84
2023/02/13 08:18:34;;;;;;;7.18;5.07;;;2.90;99.90;;;;;;4955738;28;20059;-82
2023/02/13 08:21:02;;;;;;;7.25;4.57;;;2.90;99.90;;;;;;4942468;29;20051;-82
2023/02/13 08:23:28;;;;;;;8.10;5.25;;;2.90;99.90;;;;;;4949466;28;20369;-83
2023/02/13 08:25:59;;;;;;;7.55;5.40;;;3.00;99.90;;;;;;4967945;28;20094;-83
2023/02/13 08:28:28;;;;;;;7.72;5.85;;;3.00;99.90;;;;;;4940294;28;20491;-83
2023/02/13 08:30:55;;;;;;;8.27;5.70;;;3.10;99.90;;;;;;4972009;28;20364;-83
2023/02/13 08:33:22;;;;;;;8.50;5.72;;;3.10;99.90;;;;;;4965705;28;20407;-82
2023/02/13 08:35:48;;;;;;;7.78;5.15;;;3.20;99.90;;;;;;4970627;28;20150;-82
2023/02/13 08:38:15;;;;;;;8.55;5.43;;;3.20;99.90;;;;;;4941638;28;20057;-86
2023/02/13 08:40:42;;;;;;;7.25;5.30;;;3.30;99.90;;;;;;4963000;28;20047;-85
2023/02/13 08:43:09;;;;;;;8.88;5.32;;;3.30;99.90;;;;;;4969093;28;20696;-84
2023/02/13 08:45:36;;;;;;;6.43;5.07;;;3.40;99.90;;;;;;4948440;28;20051;-85
2023/02/13 08:48:03;;;;;;;7.18;4.35;;;3.50;99.90;;;;;;4938903;28;20057;-86
2023/02/13 08:50:30;;;;;;;7.32;4.88;;;3.60;99.90;;;;;;4938070;29;20141;-86
2023/02/13 08:52:57;;;;;;;6.25;4.22;;;3.60;99.90;;;;;;4968636;28;20420;-86
2023/02/13 08:55:25;;;;;;;7.07;5.22;;;3.70;99.90;;;;;;4934136;28;20040;-85
2023/02/13 08:57:52;;;;;;;8.20;4.90;;;3.80;99.90;;;;;;4967778;28;20074;-76
2023/02/13 09:00:19;;;;;;;6.80;4.65;;;3.80;99.90;;;;;;4969942;28;20422;-82
2023/02/13 09:02:46;;;;;;;7.10;4.38;;;3.90;99.90;;;;;;4967357;28;20062;-82
2023/02/13 09:05:13;;;;;;;7.78;4.78;;;4.00;99.90;;;;;;4935863;28;20074;-83
2023/02/13 09:07:40;;;;;;;7.20;4.70;;;4.10;99.90;;;;;;4934250;28;20130;-84
2023/02/13 09:10:08;;;;;;;6.10;3.83;;;4.20;99.90;;;;;;4943232;28;20125;-81
2023/02/13 09:12:35;;;;;;;4.70;3.53;;;4.20;99.90;;;;;;4966234;28;20055;-82
2023/02/13 09:15:01;;;;;;;6.32;4.50;;;4.30;99.90;;;;;;4938937;28;20163;-83
2023/02/13 09:17:28;;;;;;;6.32;4.22;;;4.40;99.90;;;;;;4971760;28;20066;-82
2023/02/13 09:19:55;;;;;;;5.82;4.05;;;4.40;99.90;;;;;;4911962;29;20058;-84
2023/02/13 09:22:22;;;;;;;6.32;3.63;;;4.50;99.90;;;;;;4923301;29;20051;-84
2023/02/13 09:24:48;;;;;;;6.32;4.13;;;4.70;99.90;;;;;;4938382;28;20148;-84
2023/02/13 09:27:15;;;;;;;6.45;4.75;;;4.80;99.90;;;;;;4975286;28;20051;-84
2023/02/13 09:29:42;;;;;;;5.53;4.25;;;4.90;99.90;;;;;;4957807;28;20086;-85
2023/02/13 09:32:09;;;;;;;8.68;4.95;;;5.00;99.90;;;;;;4928131;29;20510;-84
2023/02/13 09:34:36;;;;;;;9.38;5.15;;;5.10;99.90;;;;;;4946425;29;20572;-84
2023/02/13 09:37:02;;;;;;;6.55;4.72;;;5.30;99.90;;;;;;4960979;28;20076;-84
2023/02/13 09:39:29;;;;;;;7.95;5.43;;;5.40;99.90;;;;;;4930996;28;20560;-83
2023/02/13 09:41:56;;;;;;;7.40;5.00;;;5.50;99.90;;;;;;4928746;29;20459;-84
2023/02/13 09:44:42;;;;;;;7.22;5.20;;;5.60;99.90;;;;;;4943420;29;20083;-84
2023/02/13 09:47:15;;;;;;;7.05;4.72;;;5.70;99.90;;;;;;4959912;28;20397;-83
2023/02/13 09:49:53;;;;;;;6.43;4.47;;;5.80;99.90;;;;;;4944432;28;20137;-84
2023/02/13 09:52:19;;;;;;;7.70;5.28;;;6.00;99.90;;;;;;4976714;28;20053;-84
2023/02/13 09:54:46;;;;;;;7.95;5.55;;;6.10;99.90;;;;;;4944541;29;20087;-84
2023/02/13 09:57:30;;;;;;;10.20;6.70;;;6.20;99.90;;;;;;4928208;29;20043;-84
2023/02/13 10:00:12;;;;;;;8.23;6.28;;;6.30;99.90;;;;;;4958022;28;20119;-83
2023/02/13 10:02:57;;;;;;;8.00;5.57;;;6.40;99.90;;;;;;4942840;29;20098;-84
2023/02/13 10:05:40;;;;;;;6.45;5.15;;;6.50;99.90;;;;;;4976382;28;20055;-84
2023/02/13 10:08:35;;;;;;;7.18;5.28;;;6.70;99.90;;;;;;4943933;29;20051;-84
2023/02/13 10:11:30;;;;;;;5.45;4.15;;;6.70;99.90;;;;;;4945533;29;20110;-85
2023/02/13 10:14:39;;;;;;;5.55;4.15;;;6.80;99.90;;;;;;4974571;28;20714;-84
2023/02/13 10:17:10;;;;;;;5.97;4.68;;;7.00;99.90;;;;;;4956892;28;20526;-83
2023/02/13 10:19:49;;;;;;;6.20;4.60;;;7.10;99.90;;;;;;4929183;29;20066;-83
2023/02/13 10:22:35;;;;;;;7.38;4.93;;;7.10;99.90;;;;;;4936630;29;20091;-84
2023/02/13 10:25:07;;;;;;;5.80;4.97;;;7.20;99.90;;;;;;4970044;28;20054;-82
2023/02/13 10:27:39;;;;;;;7.30;5.28;;;7.40;99.90;;;;;;4936577;28;20146;-84
2023/02/13 10:30:21;;;;;;;5.20;4.47;;;7.40;99.90;;;;;;4958316;28;20061;-84
2023/02/13 10:33:20;;;;;;;7.30;5.40;;;7.50;99.90;;;;;;4974820;28;20056;-84
2023/02/13 10:35:52;;;;;;;8.70;6.93;;;7.60;99.90;;;;;;4957121;28;20051;-84
2023/02/13 10:38:20;;;;;;;7.47;5.97;;;7.70;99.90;;;;;;4959178;28;20059;-84
2023/02/13 10:40:56;;;;;;;6.65;5.03;;;7.70;99.90;;;;;;4930180;29;20055;-84
2023/02/13 10:43:26;;;;;;;6.55;4.80;;;7.80;99.90;;;;;;4941024;29;20069;-84
2023/02/13 10:45:58;;;;;;;7.82;4.70;;;7.80;99.90;;;;;;4940643;29;20055;-84
2023/02/13 10:48:38;;;;;;;6.57;4.97;;;7.90;99.90;;;;;;4969482;28;20047;-83
2023/02/13 10:51:23;;;;;;;4.95;4.18;;;8.00;99.90;;;;;;4956208;28;20130;-84
2023/02/13 10:54:34;;;;;;;6.50;5.28;;;8.10;99.90;;;;;;4968805;28;20150;-84
2023/02/13 10:57:27;;;;;;;6.03;4.95;;;8.20;99.90;;;;;;4943745;28;20138;-84
2023/02/13 11:00:16;;;;;;;5.30;4.30;;;8.30;99.90;;;;;;4927343;29;20142;-83
2023/02/13 11:02:43;;;;;;;5.82;4.32;;;8.40;99.90;;;;;;4944290;28;20099;-84
2023/02/13 11:05:17;;;;;;;7.18;5.07;;;8.50;99.90;;;;;;4927796;29;20128;-85
2023/02/13 11:07:45;;;;;;;7.40;5.50;;;8.50;99.90;;;;;;4927616;29;20533;-84
2023/02/13 11:10:15;;;;;;;7.05;5.80;;;8.60;99.90;;;;;;4948886;28;20409;-84
2023/02/13 11:12:42;;;;;;;6.95;4.82;;;8.60;99.90;;;;;;4956985;28;20523;-84
2023/02/13 11:15:42;;;;;;;6.38;4.60;;;8.70;99.90;;;;;;4959289;28;20515;-84
2023/02/13 11:18:17;;;;;;;6.05;4.93;;;8.80;99.90;;;;;;4931569;29;20050;-84
2023/02/13 11:20:45;;;;;;;6.75;5.45;;;9.00;99.90;;;;;;4927092;29;20092;-84
2023/02/13 11:23:35;;;;;;;5.95;4.88;;;9.00;99.90;;;;;;4952971;28;20051;-85
2023/02/13 11:26:36;;;;;;;6.72;5.18;;;9.10;99.90;;;;;;4973660;28;20055;-85
2023/02/13 11:29:15;;;;;;;6.70;5.10;;;9.20;99.90;;;;;;4945661;28;20083;-84
2023/02/13 11:31:42;;;;;;;5.80;4.68;;;9.30;99.90;;;;;;4927445;29;20085;-84
2023/02/13 11:34:24;;;;;;;5.40;4.55;;;9.40;99.90;;;;;;4926414;29;20173;-85
2023/02/13 11:37:13;;;;;;;6.50;5.75;;;9.70;99.90;;;;;;4942723;29;20302;-86
2023/02/13 11:39:40;;;;;;;6.20;5.03;;;9.90;99.90;;;;;;4943124;28;20051;-86
2023/02/13 11:42:23;;;;;;;5.90;4.85;;;10.20;99.90;;;;;;4942976;28;20053;-86
2023/02/13 11:44:58;;;;;;;5.80;4.57;;;10.40;99.90;;;;;;4911533;29;20061;-86
2023/02/13 11:47:41;;;;;;;6.10;4.97;;;10.70;99.90;;;;;;4927987;28;20058;-86
2023/02/13 11:50:23;;;;;;;7.25;5.60;;;11.10;99.90;;;;;;4950850;28;20438;-86
2023/02/13 11:53:20;;;;;;;5.97;5.00;;;11.20;99.90;;;;;;4954993;28;20079;-86
2023/02/13 11:56:11;;;;;;;5.72;4.30;;;11.30;99.90;;;;;;4964233;28;20051;-86
2023/02/13 11:58:38;;;;;;;4.72;4.22;;;11.60;99.90;;;;;;4932922;29;20123;-85
2023/02/13 12:01:21;;;;;;;5.88;5.10;;;11.80;99.90;;;;;;4911063;29;20097;-85
2023/02/13 12:04:00;;;;;;;6.03;5.25;;;12.00;99.90;;;;;;4972485;28;20051;-86
2023/02/13 12:06:27;;;;;;;7.45;5.85;;;12.20;99.90;;;;;;4974543;28;20377;-85
2023/02/13 12:08:53;;;;;;;6.78;6.03;;;12.30;99.90;;;;;;4958104;28;20047;-86
2023/02/13 12:11:34;;;;;;;6.35;5.65;;;12.50;99.90;;;;;;4942707;29;20499;-85
2023/02/13 12:14:01;;;;;;;5.82;5.07;;;12.70;99.90;;;;;;4956559;28;20065;-85
2023/02/13 12:16:49;;;;;;;5.88;5.25;;;13.00;99.90;;;;;;4958783;28;20169;-85
2023/02/13 12:19:20;;;;;;;5.13;4.63;;;13.20;99.90;;;;;;4970649;28;20047;-85
2023/02/13 12:22:00;;;;;;;5.38;4.72;;;13.50;99.90;;;;;;4941040;29;20551;-84
2023/02/13 12:24:31;;;;;;;6.10;5.17;;;13.80;99.90;;;;;;4972742;28;20039;-85
2023/02/13 12:27:10;;;;;;;4.78;4.28;;;14.10;99.90;;;;;;4972524;28;20267;-85
2023/02/13 12:30:04;;;;;;;5.20;4.70;;;14.20;99.90;;;;;;4929515;29;20077;-85
2023/02/13 12:32:31;;;;;;;5.70;4.80;;;14.40;99.90;;;;;;4942577;28;20047;-85
2023/02/13 12:35:04;;;;;;;5.40;4.90;;;14.60;99.90;;;;;;4941557;29;20475;-84
2023/02/13 12:37:50;;;;;;;4.90;3.97;;;14.80;99.90;;;;;;4974083;28;20158;-85
2023/02/13 12:40:23;;;;;;;4.93;4.25;;;15.10;99.90;;;;;;4942421;29;20061;-86
2023/02/13 12:43:16;;;;;;;4.03;3.63;;;15.20;99.90;;;;;;4961130;28;20055;-86
2023/02/13 12:45:45;;;;;;;5.90;5.13;;;15.40;99.90;;;;;;4927973;29;20134;-86
2023/02/13 12:48:27;;;;;;;5.20;4.70;;;15.60;99.90;;;;;;4943599;29;20047;-87
2023/02/13 12:51:39;;;;;;;5.72;5.10;;;15.80;99.90;;;;;;4943947;29;20337;-86
2023/02/13 12:54:22;;;;;;;5.95;5.35;;;15.90;99.90;;;;;;4947927;28;20557;-86
2023/02/13 12:57:08;;;;;;;7.05;6.35;;;15.80;99.90;;;;;;4959664;28;20473;-85
2023/02/13 12:59:53;;;;;;;7.65;6.95;;;15.90;99.90;;;;;;4934917;28;20068;-85
2023/02/13 13:02:55;;;;;;;5.95;5.35;;;16.10;99.90;;;;;;4958929;28;20086;-86
2023/02/13 13:05:28;;;;;;;5.70;5.13;;;16.30;99.90;;;;;;4953579;28;20475;-85
2023/02/13 13:08:03;;;;;;;5.43;4.93;;;16.40;99.90;;;;;;4940754;28;20067;-85
2023/02/13 13:10:39;;;;;;;5.43;4.93;;;16.70;99.90;;;;;;4975953;28;20052;-85
2023/02/13 13:13:31;;;;;;;4.90;4.40;;;17.00;99.90;;;;;;4942527;28;20086;-85
2023/02/13 13:16:26;;;;;;;4.97;4.35;;;17.40;99.90;;;;;;4946774;29;20487;-86
2023/02/13 13:18:52;;;;;;;4.50;4.00;;;17.70;99.90;;;;;;4961194;28;20051;-86
2023/02/13 13:21:36;;;;;;;5.93;5.35;;;18.00;99.90;;;;;;4944923;29;20185;-85
2023/02/13 13:24:12;;;;;;;5.47;4.97;;;18.00;99.90;;;;;;4959343;28;20047;-85
2023/02/13 13:26:41;;;;;;;4.90;3.85;;;17.90;99.90;;;;;;4974732;28;20058;-85
2023/02/13 13:29:39;;;;;;;4.38;3.97;;;17.90;99.90;;;;;;4958215;28;20419;-86
2023/02/13 13:32:07;;;;;;;4.05;3.60;;;18.10;99.90;;;;;;4943801;28;20368;-85
2023/02/13 13:34:34;;;;;;;5.20;4.70;;;18.30;99.90;;;;;;4943901;28;20063;-85
2023/02/13 13:37:05;;;;;;;5.68;5.18;;;18.10;99.90;;;;;;4944722;29;20108;-85
2023/02/13 13:39:54;;;;;;;5.72;5.22;;;17.80;99.90;;;;;;4959760;28;20473;-84
2023/02/13 13:42:32;;;;;;;3.90;3.50;;;18.00;99.90;;;;;;4957274;28;20522;-86
2023/02/13 13:45:23;;;;;;;5.03;4.53;;;18.50;99.90;;;;;;4942732;28;20089;-85
2023/02/13 13:48:21;;;;;;;5.18;4.68;;;18.40;99.90;;;;;;4945106;28;20062;-85
2023/02/13 13:50:47;;;;;;;5.18;4.68;;;18.40;99.90;;;;;;4959277;28;20467;-85
2023/02/13 13:53:19;;;;;;;4.43;4.03;;;18.60;99.50;;;;;;4927504;29;20138;-85
2023/02/13 13:55:46;;;;;;;5.67;5.13;;;18.70;99.00;;;;;;4943656;29;20079;-85
2023/02/13 13:58:42;;;;;;;4.93;4.43;;;18.70;99.10;;;;;;4943631;29;20855;-85
2023/02/13 14:01:23;;;;;;;3.97;3.58;;;18.90;98.90;;;;;;4930051;29;20114;-85
2023/02/13 14:03:52;;;;;;;4.43;3.80;;;19.10;98.50;;;;;;4959550;28;20055;-86
2023/02/13 14:06:20;;;;;;;3.78;3.38;;;19.10;98.50;;;;;;4928754;29;20479;-86
2023/02/13 14:08:48;;;;;;;3.30;3.00;;;19.50;98.20;;;;;;4912179;29;20048;-85
2023/02/13 14:11:33;;;;;;;3.38;3.08;;;19.90;97.70;;;;;;4944192;28;20062;-85